createdAt,value
2023-04-24T00:00:39.070Z,5.60
2023-04-24T00:03:06.939Z,4.87
2023-04-24T00:05:34.925Z,4.73
2023-04-24T00:08:02.854Z,4.90
2023-04-24T00:10:30.668Z,4.97
2023-04-24T00:12:58.413Z,4.53
2023-04-24T00:15:27.677Z,5.10
2023-04-24T00:17:55.648Z,4.70
2023-04-24T00:20:23.652Z,5.00
2023-04-24T00:22:51.471Z,4.37
2023-04-24T00:25:19.216Z,5.53
2023-04-24T00:27:47.137Z,4.67
2023-04-24T00:30:15.081Z,4.83
2023-04-24T00:32:44.223Z,5.30
2023-04-24T00:35:12.590Z,4.77
2023-04-24T00:37:40.381Z,5.00
2023-04-24T00:40:09.244Z,5.03
2023-04-24T00:42:37.171Z,5.23
2023-04-24T00:45:06.046Z,4.80
2023-04-24T00:47:35.611Z,5.30
2023-04-24T00:50:05.711Z,5.23
2023-04-24T00:52:34.022Z,5.97
2023-04-24T00:55:02.068Z,5.43
2023-04-24T00:57:30.317Z,5.00
2023-04-24T00:59:58.042Z,5.10
2023-04-24T01:02:27.421Z,4.87
2023-04-24T01:04:55.520Z,5.10
2023-04-24T01:07:24.695Z,4.77
2023-04-24T01:09:53.190Z,5.30
2023-04-24T01:12:21.615Z,5.57
2023-04-24T01:14:49.375Z,5.40
2023-04-24T01:17:17.269Z,5.27
2023-04-24T01:19:46.256Z,5.50
2023-04-24T01:22:16.089Z,5.40
2023-04-24T01:24:44.115Z,5.40
2023-04-24T01:27:12.835Z,5.67
2023-04-24T01:29:40.932Z,5.80
2023-04-24T01:32:09.067Z,5.77
2023-04-24T01:34:36.872Z,6.07
2023-04-24T01:37:05.994Z,5.57
2023-04-24T01:39:35.201Z,5.67
2023-04-24T01:42:03.373Z,5.60
2023-04-24T01:44:31.242Z,5.37
2023-04-24T01:46:59.341Z,5.90
2023-04-24T01:49:27.113Z,4.80
2023-04-24T01:51:54.928Z,5.07
2023-04-24T01:54:22.671Z,6.13
2023-04-24T01:56:52.146Z,5.13
2023-04-24T01:59:20.456Z,5.50
2023-04-24T02:01:48.296Z,5.77
2023-04-24T02:04:16.419Z,6.07
2023-04-24T02:06:44.364Z,5.27
2023-04-24T02:09:12.729Z,5.57
2023-04-24T02:11:40.429Z,6.47
2023-04-24T02:14:09.532Z,5.80
2023-04-24T02:16:37.312Z,5.70
2023-04-24T02:19:05.859Z,5.33
2023-04-24T02:21:33.880Z,6.43
2023-04-24T02:24:01.957Z,5.30
2023-04-24T02:26:29.733Z,5.10
2023-04-24T02:28:57.486Z,6.13
2023-04-24T02:31:26.740Z,5.50
2023-04-24T02:33:54.490Z,6.40
2023-04-24T02:36:22.265Z,5.80
2023-04-24T02:38:50.027Z,5.43
2023-04-24T02:41:17.760Z,5.87
2023-04-24T02:43:45.518Z,5.70
2023-04-24T02:46:13.341Z,5.23
2023-04-24T02:48:42.462Z,6.10
2023-04-24T02:51:10.880Z,5.70
2023-04-24T02:53:38.678Z,5.03
2023-04-24T02:56:06.751Z,4.70
2023-04-24T02:58:34.788Z,6.20
2023-04-24T03:01:02.561Z,5.40
2023-04-24T03:03:30.399Z,5.87
2023-04-24T03:06:00.118Z,6.30
2023-04-24T03:08:27.870Z,6.93
2023-04-24T03:10:55.560Z,6.00
2023-04-24T03:13:23.387Z,6.23
2023-04-24T03:15:51.162Z,7.93
2023-04-24T03:18:19.000Z,6.90
2023-04-24T03:20:48.498Z,6.60
2023-04-24T03:23:17.649Z,6.07
2023-04-24T03:25:45.375Z,7.00
2023-04-24T03:28:13.096Z,5.80
2023-04-24T03:30:40.878Z,6.40
2023-04-24T03:33:09.407Z,5.70
2023-04-24T03:35:37.245Z,6.43
2023-04-24T03:38:05.679Z,6.37
2023-04-24T03:40:35.601Z,6.50
2023-04-24T03:43:03.469Z,6.90
2023-04-24T03:45:31.279Z,7.17
2023-04-24T03:47:59.092Z,7.83
2023-04-24T03:50:27.703Z,7.50
2023-04-24T03:52:55.438Z,6.30
2023-04-24T03:55:23.146Z,6.27
2023-04-24T03:57:52.223Z,7.00
2023-04-24T04:00:20.472Z,6.67
2023-04-24T04:02:48.373Z,6.30
2023-04-24T04:05:16.409Z,7.40
2023-04-24T04:07:44.167Z,7.03
2023-04-24T04:10:12.292Z,7.57
2023-04-24T04:12:40.051Z,7.87
2023-04-24T04:15:09.680Z,8.57
2023-04-24T04:17:38.937Z,7.07
2023-04-24T04:20:10.366Z,7.73
2023-04-24T04:22:38.175Z,7.47
2023-04-24T04:25:06.562Z,7.50
2023-04-24T04:27:34.627Z,7.47
2023-04-24T04:30:05.625Z,7.47
2023-04-24T04:32:35.355Z,7.73
2023-04-24T04:35:04.174Z,19.23
2023-04-24T04:37:32.270Z,8.90
2023-04-24T04:40:00.098Z,7.10
2023-04-24T04:42:28.502Z,7.10
2023-04-24T04:44:57.089Z,6.83
2023-04-24T04:47:25.359Z,6.93
2023-04-24T04:49:54.473Z,7.17
2023-04-24T04:52:26.025Z,6.67
2023-04-24T04:54:53.766Z,6.93
2023-04-24T04:57:21.497Z,11.17
2023-04-24T04:59:49.392Z,7.10
2023-04-24T05:02:17.236Z,7.13
2023-04-24T05:04:45.375Z,7.23
2023-04-24T05:07:14.931Z,6.70
2023-04-24T05:09:42.868Z,6.93
2023-04-24T05:12:10.731Z,6.87
2023-04-24T05:14:38.439Z,6.87
2023-04-24T05:17:06.263Z,6.90
2023-04-24T05:19:37.030Z,6.73
2023-04-24T05:22:07.543Z,7.60
2023-04-24T05:24:36.597Z,8.03
2023-04-24T05:27:05.559Z,6.73
2023-04-24T05:29:34.196Z,6.33
2023-04-24T05:32:02.289Z,6.13
2023-04-24T05:34:30.032Z,6.60
2023-04-24T05:36:57.797Z,6.30
2023-04-24T05:39:26.043Z,8.30
2023-04-24T05:41:56.061Z,6.07
2023-04-24T05:44:23.728Z,6.47
2023-04-24T05:46:51.818Z,7.57
2023-04-24T05:49:19.565Z,6.73
2023-04-24T05:51:47.277Z,6.10
2023-04-24T05:54:15.103Z,5.83
2023-04-24T05:56:43.364Z,7.63
2023-04-24T05:59:12.470Z,6.27
2023-04-24T06:01:40.262Z,6.40
2023-04-24T06:04:08.225Z,5.80
2023-04-24T06:06:37.072Z,5.80
2023-04-24T06:09:05.828Z,7.00
2023-04-24T06:11:33.581Z,6.23
2023-04-24T06:14:01.272Z,5.80
2023-04-24T06:16:31.903Z,5.63
2023-04-24T06:18:59.666Z,5.50
2023-04-24T06:21:27.396Z,5.27
2023-04-24T06:23:57.018Z,4.90
2023-04-24T06:26:25.957Z,4.23
2023-04-24T06:28:54.722Z,4.23
2023-04-24T06:31:22.732Z,3.80
2023-04-24T06:33:51.926Z,4.03
2023-04-24T06:36:19.716Z,4.17
2023-04-24T06:38:47.560Z,3.60
2023-04-24T06:41:15.369Z,3.70
2023-04-24T06:43:43.096Z,3.57
2023-04-24T06:46:10.861Z,3.40
2023-04-24T06:48:38.689Z,3.10
2023-04-24T06:51:07.849Z,2.83
2023-04-24T06:53:36.052Z,3.00
2023-04-24T06:56:04.318Z,2.73
2023-04-24T06:58:32.911Z,2.07
2023-04-24T07:01:00.701Z,2.80
2023-04-24T07:03:28.618Z,2.60
2023-04-24T07:05:57.129Z,2.20
2023-04-24T07:08:26.396Z,2.50
2023-04-24T07:10:54.156Z,2.20
2023-04-24T07:13:21.859Z,3.13
2023-04-24T07:15:51.886Z,2.50
2023-04-24T07:18:19.677Z,2.97
2023-04-24T07:20:47.440Z,2.67
2023-04-24T07:23:15.433Z,2.30
2023-04-24T07:25:45.140Z,2.13
2023-04-24T07:28:12.905Z,2.93
2023-04-24T07:30:40.610Z,2.10
2023-04-24T07:33:08.476Z,2.73
2023-04-24T07:35:36.725Z,2.20
2023-04-24T07:38:04.524Z,2.70
2023-04-24T07:40:32.270Z,1.97
2023-04-24T07:43:01.467Z,2.07
2023-04-24T07:45:29.329Z,1.67
2023-04-24T07:47:57.131Z,1.70
2023-04-24T07:50:24.877Z,1.77
2023-04-24T07:52:52.612Z,2.07
2023-04-24T07:55:23.262Z,1.80
2023-04-24T07:57:52.055Z,1.60
2023-04-24T08:00:21.908Z,1.60
2023-04-24T08:02:49.949Z,1.50
2023-04-24T08:05:18.307Z,1.53
2023-04-24T08:07:47.228Z,1.70
2023-04-24T08:10:15.009Z,1.40
2023-04-24T08:12:43.222Z,1.80
2023-04-24T08:15:11.806Z,1.60
2023-04-24T08:17:41.356Z,1.53
2023-04-24T08:20:14.668Z,2.40
2023-04-24T08:22:42.703Z,1.60
2023-04-24T08:25:11.047Z,2.20
2023-04-24T08:27:39.802Z,1.30
2023-04-24T08:30:09.122Z,1.50
2023-04-24T08:32:40.060Z,1.60
2023-04-24T08:35:10.154Z,1.27
2023-04-24T08:37:38.400Z,1.50
2023-04-24T08:40:12.754Z,2.93
2023-04-24T08:42:41.559Z,2.83
2023-04-24T08:45:10.603Z,1.63
2023-04-24T08:47:41.878Z,1.10
2023-04-24T08:50:10.737Z,1.23
2023-04-24T08:52:38.623Z,1.33
2023-04-24T08:55:08.018Z,1.33
2023-04-24T08:57:36.959Z,1.50
2023-04-24T09:00:05.671Z,1.33
2023-04-24T09:02:35.381Z,1.60
2023-04-24T09:05:06.294Z,1.80
2023-04-24T09:07:37.616Z,1.30
2023-04-24T09:10:06.124Z,1.20
2023-04-24T09:12:34.134Z,1.27
2023-04-24T09:15:02.535Z,1.33
2023-04-24T09:17:30.557Z,1.37
2023-04-24T09:19:58.324Z,1.30
2023-04-24T09:22:27.574Z,1.40
2023-04-24T09:25:04.295Z,1.20
2023-04-24T09:27:32.981Z,1.10
2023-04-24T09:30:01.587Z,1.50
2023-04-24T09:32:31.024Z,1.20
2023-04-24T09:35:10.222Z,2.00
2023-04-24T09:37:40.564Z,1.10
2023-04-24T09:40:13.607Z,1.10
2023-04-24T09:42:41.503Z,1.47
2023-04-24T09:45:15.447Z,1.50
2023-04-24T09:47:44.684Z,1.63
2023-04-24T09:50:14.961Z,1.47
2023-04-24T09:52:45.949Z,1.13
2023-04-24T09:55:15.672Z,1.40
2023-04-24T09:57:53.762Z,1.40
2023-04-24T10:00:24.417Z,1.20
2023-04-24T10:02:54.150Z,1.33
2023-04-24T10:05:25.876Z,1.20
2023-04-24T10:07:59.095Z,1.50
2023-04-24T10:10:27.012Z,1.50
2023-04-24T10:12:55.224Z,1.40
2023-04-24T10:15:23.328Z,1.30
2023-04-24T10:17:53.624Z,1.20
2023-04-24T10:20:23.214Z,1.40
2023-04-24T10:22:52.933Z,1.30
2023-04-24T10:25:23.734Z,1.20
2023-04-24T10:27:53.538Z,1.30
2023-04-24T10:30:22.191Z,1.20
2023-04-24T10:32:50.024Z,1.40
2023-04-24T10:35:20.583Z,1.17
2023-04-24T10:37:52.427Z,1.50
2023-04-24T10:40:29.143Z,1.60
2023-04-24T10:42:59.082Z,1.20
2023-04-24T10:45:27.621Z,1.30
2023-04-24T10:47:59.367Z,1.10
2023-04-24T10:50:29.129Z,1.10
2023-04-24T10:53:08.088Z,1.20
2023-04-24T10:55:44.954Z,1.30
2023-04-24T10:58:13.123Z,1.20
2023-04-24T11:00:42.502Z,1.13
2023-04-24T11:03:26.020Z,1.33
2023-04-24T11:06:02.057Z,1.13
2023-04-24T11:08:35.205Z,1.27
2023-04-24T11:11:10.611Z,1.30
2023-04-24T11:14:07.387Z,1.20
2023-04-24T11:16:39.277Z,1.20
2023-04-24T11:19:09.445Z,1.63
2023-04-24T11:21:44.900Z,1.60
2023-04-24T11:24:29.972Z,1.10
2023-04-24T11:27:00.736Z,1.40
2023-04-24T11:29:45.489Z,1.17
2023-04-24T11:32:27.278Z,1.30
2023-04-24T11:34:56.620Z,1.30
2023-04-24T11:37:25.204Z,1.67
2023-04-24T11:39:54.470Z,1.30
2023-04-24T11:42:24.928Z,1.23
2023-04-24T11:44:55.345Z,1.20
2023-04-24T11:47:30.173Z,1.17
2023-04-24T11:49:58.123Z,1.00
2023-04-24T11:52:26.125Z,1.00
2023-04-24T11:54:53.927Z,1.10
2023-04-24T11:57:23.934Z,1.10
2023-04-24T11:59:51.921Z,1.77
2023-04-24T12:02:24.202Z,1.10
2023-04-24T12:04:52.808Z,1.53
2023-04-24T12:07:20.914Z,1.23
2023-04-24T12:09:52.620Z,1.20
2023-04-24T12:12:21.023Z,1.10
2023-04-24T12:14:56.439Z,1.20
2023-04-24T12:17:29.358Z,1.33
2023-04-24T12:20:01.038Z,1.00
2023-04-24T12:22:29.139Z,1.17
2023-04-24T12:25:04.223Z,0.90
2023-04-24T12:27:33.999Z,0.93
2023-04-24T12:30:05.923Z,1.10
2023-04-24T12:32:34.295Z,1.10
2023-04-24T12:35:02.050Z,1.30
2023-04-24T12:37:37.380Z,2.20
2023-04-24T12:40:08.189Z,1.10
2023-04-24T12:42:36.790Z,1.30
2023-04-24T12:45:08.141Z,1.27
2023-04-24T12:47:37.312Z,1.20
2023-04-24T12:50:05.577Z,1.70
2023-04-24T12:52:33.413Z,1.20
2023-04-24T12:55:02.851Z,1.23
2023-04-24T12:57:32.062Z,1.47
2023-04-24T13:00:00.815Z,1.50
2023-04-24T13:02:32.161Z,2.40
2023-04-24T13:05:01.017Z,1.40
2023-04-24T13:07:29.477Z,1.27
2023-04-24T13:09:58.814Z,1.20
2023-04-24T13:12:27.489Z,1.17
2023-04-24T13:14:55.421Z,1.10
2023-04-24T13:17:24.046Z,1.10
2023-04-24T13:19:57.350Z,1.40
2023-04-24T13:22:25.197Z,1.40
2023-04-24T13:24:53.013Z,1.30
2023-04-24T13:27:20.962Z,1.50
2023-04-24T13:29:48.701Z,1.50
2023-04-24T13:32:16.619Z,1.27
2023-04-24T13:34:44.839Z,2.37
2023-04-24T13:37:14.024Z,1.40
2023-04-24T13:39:43.358Z,2.43
2023-04-24T13:42:11.791Z,1.30
2023-04-24T13:44:39.705Z,1.57
2023-04-24T13:47:07.586Z,1.30
2023-04-24T13:49:35.322Z,1.40
2023-04-24T13:52:03.837Z,1.50
2023-04-24T13:54:33.794Z,1.50
2023-04-24T13:57:01.556Z,2.43
2023-04-24T13:59:29.422Z,1.90
2023-04-24T14:01:57.260Z,1.70
2023-04-24T14:04:25.265Z,1.97
2023-04-24T14:06:53.286Z,1.70
2023-04-24T14:09:21.006Z,2.97
2023-04-24T14:11:50.159Z,2.30
2023-04-24T14:14:17.975Z,2.13
2023-04-24T14:16:46.130Z,2.63
2023-04-24T14:19:13.873Z,2.97
2023-04-24T14:21:41.632Z,2.47
2023-04-24T14:24:10.369Z,2.00
2023-04-24T14:26:38.201Z,2.53
2023-04-24T14:29:14.064Z,2.40
2023-04-24T14:31:42.899Z,2.90
2023-04-24T14:34:11.206Z,2.40
2023-04-24T14:36:39.063Z,2.70
2023-04-24T14:39:07.980Z,2.40
2023-04-24T14:41:37.007Z,3.30
2023-04-24T14:44:05.136Z,3.57
2023-04-24T14:46:34.590Z,3.40
2023-04-24T14:49:02.419Z,3.20
2023-04-24T14:51:30.179Z,3.30
2023-04-24T14:53:58.514Z,3.83
2023-04-24T14:56:26.416Z,2.90
2023-04-24T14:58:54.700Z,3.47
2023-04-24T15:01:22.494Z,3.17
2023-04-24T15:03:52.320Z,4.47
2023-04-24T15:06:21.212Z,3.40
2023-04-24T15:08:50.434Z,3.40
2023-04-24T15:11:18.683Z,3.13
2023-04-24T15:13:47.361Z,3.03
2023-04-24T15:16:15.624Z,2.97
2023-04-24T15:18:43.527Z,2.73
2023-04-24T15:21:13.823Z,2.70
2023-04-24T15:23:41.543Z,3.23
2023-04-24T15:26:09.321Z,3.17
2023-04-24T15:28:37.058Z,2.90
2023-04-24T15:31:05.249Z,2.00
2023-04-24T15:33:33.009Z,4.70
2023-04-24T15:36:01.073Z,1.90
2023-04-24T15:38:30.242Z,1.90
2023-04-24T15:40:57.986Z,2.20
2023-04-24T15:43:25.850Z,1.90
2023-04-24T15:45:53.698Z,1.63
2023-04-24T15:48:21.469Z,1.70
2023-04-24T15:50:49.193Z,1.40
2023-04-24T15:53:22.057Z,1.77
2023-04-24T15:55:51.800Z,2.17
2023-04-24T15:58:21.456Z,1.80
2023-04-24T16:00:49.287Z,1.93
2023-04-24T16:03:17.184Z,2.30
2023-04-24T16:05:45.037Z,2.30
2023-04-24T16:08:14.227Z,2.13
2023-04-24T16:10:42.661Z,1.67
2023-04-24T16:13:11.759Z,1.90
2023-04-24T16:15:40.175Z,2.30
2023-04-24T16:18:08.081Z,2.00
2023-04-24T16:20:35.832Z,1.93
2023-04-24T16:23:03.761Z,2.20
2023-04-24T16:25:31.515Z,2.33
2023-04-24T16:27:59.335Z,2.10
2023-04-24T16:30:28.531Z,2.20
2023-04-24T16:32:56.298Z,2.10
2023-04-24T16:35:24.107Z,2.00
2023-04-24T16:37:51.910Z,2.07
2023-04-24T16:40:20.229Z,2.30
2023-04-24T16:42:48.677Z,3.60
2023-04-24T16:45:16.518Z,2.10
2023-04-24T16:47:45.780Z,2.03
2023-04-24T16:50:13.572Z,2.40
2023-04-24T16:52:41.339Z,2.20
2023-04-24T16:55:09.918Z,2.23
2023-04-24T16:57:38.038Z,1.63
2023-04-24T17:00:06.910Z,1.70
2023-04-24T17:02:34.709Z,1.20
2023-04-24T17:05:03.958Z,1.40
2023-04-24T17:07:32.114Z,1.10
2023-04-24T17:09:59.915Z,1.00
2023-04-24T17:12:27.739Z,1.00
2023-04-24T17:14:55.831Z,1.30
2023-04-24T17:17:25.484Z,1.13
2023-04-24T17:19:53.282Z,1.40
2023-04-24T17:22:22.429Z,1.40
2023-04-24T17:24:50.134Z,1.50
2023-04-24T17:27:17.825Z,1.70
2023-04-24T17:29:45.548Z,1.90
2023-04-24T17:32:13.448Z,1.53
2023-04-24T17:34:41.222Z,1.70
2023-04-24T17:37:09.069Z,1.87
2023-04-24T17:39:38.298Z,2.00
2023-04-24T17:42:06.323Z,2.40
2023-04-24T17:44:34.202Z,2.03
2023-04-24T17:47:02.091Z,1.97
2023-04-24T17:49:29.821Z,2.93
2023-04-24T17:51:57.580Z,2.23
2023-04-24T17:54:25.360Z,2.43
2023-04-24T17:56:54.867Z,2.10
2023-04-24T17:59:23.742Z,2.13
2023-04-24T18:01:51.714Z,2.43
2023-04-24T18:04:19.687Z,2.67
2023-04-24T18:06:47.647Z,2.70
2023-04-24T18:09:18.850Z,2.20
2023-04-24T18:11:46.709Z,2.50
2023-04-24T18:14:15.837Z,2.20
2023-04-24T18:16:43.553Z,2.17
2023-04-24T18:19:11.237Z,2.13
2023-04-24T18:21:38.965Z,1.90
2023-04-24T18:24:07.447Z,3.37
2023-04-24T18:26:35.174Z,1.70
2023-04-24T18:29:02.945Z,1.70
2023-04-24T18:31:32.555Z,2.03
2023-04-24T18:34:00.508Z,2.10
2023-04-24T18:36:28.304Z,1.47
2023-04-24T18:38:56.022Z,1.00
2023-04-24T18:41:23.767Z,0.70
2023-04-24T18:43:51.956Z,0.80
2023-04-24T18:46:19.823Z,0.90
2023-04-24T18:48:49.195Z,3.73
2023-04-24T18:51:17.211Z,1.10
2023-04-24T18:53:44.995Z,1.30
2023-04-24T18:56:13.082Z,1.30
2023-04-24T18:58:44.305Z,1.27
2023-04-24T19:01:12.142Z,1.47
2023-04-24T19:03:40.010Z,1.70
2023-04-24T19:06:09.149Z,1.23
2023-04-24T19:08:38.550Z,2.17
2023-04-24T19:11:06.396Z,1.80
2023-04-24T19:13:34.597Z,2.50
2023-04-24T19:16:02.378Z,2.57
2023-04-24T19:18:30.492Z,2.83
2023-04-24T19:20:58.981Z,4.33
2023-04-24T19:23:28.228Z,3.53
2023-04-24T19:25:56.028Z,3.17
2023-04-24T19:28:23.746Z,3.50
2023-04-24T19:30:51.511Z,3.83
2023-04-24T19:33:19.418Z,3.23
2023-04-24T19:35:47.237Z,3.00
2023-04-24T19:38:15.019Z,2.57
2023-04-24T19:40:44.222Z,2.23
2023-04-24T19:43:12.012Z,2.10
2023-04-24T19:45:39.772Z,2.30
2023-04-24T19:48:07.917Z,2.03
2023-04-24T19:50:36.039Z,1.80
2023-04-24T19:53:03.771Z,2.13
2023-04-24T19:55:31.563Z,2.03
2023-04-24T19:58:00.932Z,1.40
2023-04-24T20:00:28.705Z,2.00
2023-04-24T20:02:56.787Z,2.70
2023-04-24T20:05:24.732Z,1.77
2023-04-24T20:07:52.555Z,1.23
2023-04-24T20:10:20.298Z,1.70
2023-04-24T20:12:48.040Z,2.30
2023-04-24T20:15:17.181Z,2.00
2023-04-24T20:17:44.910Z,2.43
2023-04-24T20:20:13.496Z,1.87
2023-04-24T20:22:41.321Z,2.13
2023-04-24T20:25:11.535Z,2.30
2023-04-24T20:27:39.448Z,2.30
2023-04-24T20:30:12.792Z,2.60
2023-04-24T20:32:42.428Z,2.20
2023-04-24T20:35:11.937Z,3.73
2023-04-24T20:37:40.060Z,2.40
2023-04-24T20:40:09.895Z,2.70
2023-04-24T20:42:38.324Z,2.77
2023-04-24T20:45:07.931Z,2.73
2023-04-24T20:47:36.763Z,3.17
2023-04-24T20:50:07.128Z,3.57
2023-04-24T20:52:34.887Z,2.70
2023-04-24T20:55:03.573Z,3.33
2023-04-24T20:57:32.036Z,3.30
2023-04-24T20:59:59.802Z,3.03
2023-04-24T21:02:27.715Z,2.67
2023-04-24T21:04:55.567Z,2.83
2023-04-24T21:07:24.685Z,3.93
2023-04-24T21:09:52.389Z,3.13
2023-04-24T21:12:20.155Z,3.97
2023-04-24T21:14:49.787Z,2.93
2023-04-24T21:17:18.950Z,3.60
2023-04-24T21:19:46.685Z,3.07
2023-04-24T21:22:14.433Z,3.17
2023-04-24T21:24:43.552Z,2.87
2023-04-24T21:27:11.388Z,4.80
2023-04-24T21:29:39.152Z,3.67
2023-04-24T21:32:07.011Z,3.60
2023-04-24T21:34:34.885Z,4.30
2023-04-24T21:37:02.698Z,3.90
2023-04-24T21:39:30.433Z,3.70
2023-04-24T21:41:59.559Z,5.50
2023-04-24T21:44:27.361Z,5.00
2023-04-24T21:46:55.269Z,5.07
2023-04-24T21:49:23.046Z,3.97
2023-04-24T21:51:50.969Z,4.10
2023-04-24T21:54:20.207Z,3.23
2023-04-24T21:56:48.017Z,4.47
2023-04-24T21:59:17.293Z,4.23
2023-04-24T22:01:45.459Z,3.67
2023-04-24T22:04:13.550Z,4.10
2023-04-24T22:06:42.142Z,6.60
2023-04-24T22:09:10.898Z,3.47
2023-04-24T22:11:38.839Z,3.67
2023-04-24T22:14:07.227Z,3.00
2023-04-24T22:16:36.342Z,3.63
2023-04-24T22:19:04.954Z,4.17
2023-04-24T22:21:33.382Z,3.40
2023-04-24T22:24:01.166Z,3.43
2023-04-24T22:26:28.961Z,6.60
2023-04-24T22:28:56.696Z,4.10
2023-04-24T22:31:24.624Z,2.97
2023-04-24T22:33:53.752Z,3.20
2023-04-24T22:36:21.476Z,3.43
2023-04-24T22:38:49.247Z,3.17
2023-04-24T22:41:17.114Z,3.70
2023-04-24T22:43:45.359Z,3.73
2023-04-24T22:46:13.134Z,4.43
2023-04-24T22:48:40.873Z,2.73
2023-04-24T22:51:11.219Z,3.97
2023-04-24T22:53:38.933Z,4.70
2023-04-24T22:56:07.488Z,3.47
2023-04-24T22:58:35.239Z,4.53
2023-04-24T23:01:04.208Z,2.60
2023-04-24T23:03:33.161Z,3.17
2023-04-24T23:06:01.092Z,4.53
2023-04-24T23:08:30.887Z,3.03
2023-04-24T23:10:58.925Z,5.43
2023-04-24T23:13:27.216Z,3.13
2023-04-24T23:15:55.236Z,2.63
2023-04-24T23:18:22.994Z,3.93
2023-04-24T23:20:51.156Z,5.93
2023-04-24T23:23:18.945Z,3.30
2023-04-24T23:25:48.132Z,3.70
2023-04-24T23:28:15.935Z,3.10
2023-04-24T23:30:43.659Z,3.10
2023-04-24T23:33:11.789Z,3.00
2023-04-24T23:35:39.652Z,3.37
2023-04-24T23:38:07.406Z,2.80
2023-04-24T23:40:35.136Z,3.50
2023-04-24T23:43:07.902Z,3.63
2023-04-24T23:45:37.035Z,4.13
2023-04-24T23:48:05.914Z,3.37
2023-04-24T23:50:33.858Z,3.90
2023-04-24T23:53:01.689Z,3.90
2023-04-24T23:55:29.454Z,3.60
2023-04-24T23:57:57.140Z,3.40
